Time;durP1;ratioP1;P1;durP2;ratioP2;P2;SDS_P1;SDS_P2;PMS_P1;PMS_P2;Temp;Humidity;BMP_temperature;BMP_pressure;BME280_temperature;BME280_humidity;BME280_pressure;Samples;Min_cycle;Max_cycle;Signal;HPM_P1;HPM_P2
2021/12/07 00:00:18;;;;;;;6.43;5.23;;;;;;;1.32;100.00;99736.34;5073086;28;20274;-75
2021/12/07 00:02:44;;;;;;;6.53;5.63;;;;;;;1.29;100.00;99720.72;5073103;28;20171;-75
2021/12/07 00:05:10;;;;;;;8.13;5.77;;;;;;;1.29;100.00;99720.72;5072581;28;20500;-75
2021/12/07 00:07:35;;;;;;;8.67;5.17;;;;;;;1.39;100.00;99718.84;5072798;28;20569;-75
2021/12/07 00:10:02;;;;;;;11.77;6.50;;;;;;;1.35;100.00;99714.28;5072714;28;20424;-74
2021/12/07 00:12:34;;;;;;;7.50;5.83;;;;;;;1.31;100.00;99711.31;5072518;28;20264;-77
2021/12/07 00:15:02;;;;;;;9.53;6.60;;;;;;;1.26;100.00;99708.63;5072509;28;20622;-77
2021/12/07 00:17:32;;;;;;;7.40;6.43;;;;;;;1.24;100.00;99704.59;5072548;28;20421;-77
2021/12/07 00:19:59;;;;;;;8.33;6.50;;;;;;;1.19;100.00;99686.56;5072644;28;20905;-77
2021/12/07 00:22:24;;;;;;;6.50;5.13;;;;;;;1.19;100.00;99683.88;5071855;28;20472;-77
2021/12/07 00:24:50;;;;;;;6.93;5.90;;;;;;;1.18;100.00;99684.94;5072157;28;20444;-76
2021/12/07 00:27:15;;;;;;;9.17;6.63;;;;;;;1.17;100.00;99681.44;5072591;28;20265;-77
2021/12/07 00:29:41;;;;;;;17.00;5.53;;;;;;;1.22;100.00;99672.56;5072347;28;20174;-77
2021/12/07 00:32:24;;;;;;;7.80;6.30;;;;;;;1.15;100.00;99680.88;5072228;28;20578;-77
2021/12/07 00:37:26;;;;;;;6.33;4.27;;;;;;;1.26;100.00;99662.06;5072171;28;20499;-77
2021/12/07 00:39:53;;;;;;;8.23;5.67;;;;;;;1.32;100.00;99674.47;5072186;28;20441;-77
2021/12/07 00:42:18;;;;;;;6.10;4.10;;;;;;;1.31;100.00;99672.84;5072102;28;20464;-77
2021/12/07 00:44:44;;;;;;;12.03;6.40;;;;;;;1.26;100.00;99664.75;5072005;28;20447;-77
2021/12/07 00:47:09;;;;;;;7.57;6.10;;;;;;;1.29;100.00;99661.53;5072131;28;20266;-77
2021/12/07 00:49:35;;;;;;;6.87;5.30;;;;;;;1.32;100.00;99656.44;5071992;28;20182;-77
2021/12/07 00:52:00;;;;;;;5.73;4.83;;;;;;;1.27;100.00;99655.63;5071828;28;20174;-77
2021/12/07 00:54:26;;;;;;;4.97;4.40;;;;;;;1.34;100.00;99650.78;5072241;28;20182;-77
2021/12/07 00:56:51;;;;;;;7.90;5.83;;;;;;;1.27;100.00;99647.53;5071892;28;20618;-77
2021/12/07 00:59:17;;;;;;;7.93;6.27;;;;;;;1.24;100.00;99637.31;5072329;28;20182;-77
2021/12/07 01:01:42;;;;;;;6.23;4.80;;;;;;;1.28;100.00;99644.56;5071810;28;20194;-77
2021/12/07 01:04:08;;;;;;;8.47;5.27;;;;;;;1.36;100.00;99651.31;5071897;28;20184;-77
2021/12/07 01:07:01;;;;;;;5.50;4.67;;;;;;;1.29;100.00;99642.69;5070326;28;20171;-77
2021/12/07 01:09:35;;;;;;;11.53;6.17;;;;;;;1.24;100.00;99648.09;5072071;28;20275;-77
2021/12/07 01:25:52;;;;;;;6.27;5.20;;;;;;;1.34;100.00;99640.81;5071539;28;20412;-77
2021/12/07 01:33:34;;;;;;;7.67;4.83;;;;;;;1.43;100.00;99644.56;5071430;28;20413;-77
2021/12/07 01:59:46;;;;;;;7.53;3.90;;;;;;;1.38;100.00;99633.00;5071212;28;20174;-77
2021/12/07 02:02:15;;;;;;;6.13;4.93;;;;;;;1.43;100.00;99635.69;5070885;28;20203;-77
2021/12/07 02:04:40;;;;;;;5.20;4.67;;;;;;;1.51;100.00;99642.41;5070816;28;20178;-77
2021/12/07 02:07:07;;;;;;;4.87;4.37;;;;;;;1.56;100.00;99645.91;5070818;28;20183;-77
2021/12/07 02:09:35;;;;;;;5.90;4.13;;;;;;;1.50;100.00;99644.31;5070790;28;20240;-77
2021/12/07 02:12:02;;;;;;;4.87;3.83;;;;;;;1.53;100.00;99633.00;5070827;28;20444;-77
2021/12/07 02:14:30;;;;;;;5.93;4.37;;;;;;;1.54;100.00;99641.88;5070832;28;20423;-77
2021/12/07 02:17:03;;;;;;;5.10;4.10;;;;;;;1.58;100.00;99641.03;5071050;28;20194;-77
2021/12/07 02:19:28;;;;;;;7.53;3.90;;;;;;;1.52;100.00;99644.84;5078235;28;20482;-77
2021/12/07 02:21:57;;;;;;;6.60;4.60;;;;;;;1.62;100.00;99644.84;5073212;28;20210;-77
2021/12/07 02:24:23;;;;;;;5.20;4.70;;;;;;;1.54;100.00;99645.38;5071492;28;20259;-77
2021/12/07 02:26:49;;;;;;;5.17;3.90;;;;;;;1.60;100.00;99647.00;5070909;28;20182;-77
2021/12/07 02:29:16;;;;;;;5.43;4.47;;;;;;;1.59;100.00;99645.38;5070950;28;20936;-77
2021/12/07 02:31:43;;;;;;;4.87;3.70;;;;;;;1.75;100.00;99649.66;5070697;28;20181;-77
2021/12/07 02:34:09;;;;;;;7.60;4.30;;;;;;;1.63;100.00;99645.63;5070333;28;20170;-77
2021/12/07 02:36:35;;;;;;;4.40;3.63;;;;;;;1.71;100.00;99653.94;5070468;28;20239;-76
2021/12/07 02:39:02;;;;;;;7.17;4.03;;;;;;;1.84;100.00;99657.97;5070390;28;20177;-77
2021/12/07 02:41:28;;;;;;;4.17;3.43;;;;;;;1.82;100.00;99653.94;5070061;28;20194;-77
2021/12/07 02:43:53;;;;;;;2.03;1.70;;;;;;;1.88;100.00;99650.97;5070175;28;20227;-77
2021/12/07 02:46:18;;;;;;;5.87;4.20;;;;;;;1.84;100.00;99657.16;5072610;28;20181;-77
2021/12/07 02:48:44;;;;;;;4.10;3.70;;;;;;;1.85;100.00;99648.00;5074187;28;20252;-77
2021/12/07 02:51:09;;;;;;;7.47;4.80;;;;;;;1.85;100.00;99648.00;5074265;28;20167;-77
2021/12/07 02:53:36;;;;;;;5.77;4.27;;;;;;;1.95;100.00;99658.75;5074120;28;20634;-77
2021/12/07 02:56:04;;;;;;;7.37;5.23;;;;;;;1.86;100.00;99650.41;5072592;28;20202;-77
2021/12/07 02:58:29;;;;;;;4.07;3.50;;;;;;;1.88;100.00;99639.38;5074165;28;20166;-78
2021/12/07 03:01:02;;;;;;;5.80;5.27;;;;;;;1.78;100.00;99654.50;5074112;28;20217;-77
2021/12/07 03:03:31;;;;;;;3.60;3.27;;;;;;;1.90;100.00;99650.69;5073964;28;20210;-77
2021/12/07 03:06:23;;;;;;;8.50;5.87;;;;;;;1.77;100.00;99650.19;5073755;28;20182;-77
2021/12/07 03:27:57;;;;;;;7.10;5.67;;;;;;;1.79;100.00;99655.28;5073995;28;20211;-77
2021/12/07 03:30:23;;;;;;;6.53;5.07;;;;;;;1.80;100.00;99654.22;5073325;28;20175;-77
2021/12/07 03:32:49;;;;;;;6.07;4.90;;;;;;;1.78;100.00;99659.88;5073727;28;20209;-77
2021/12/07 03:35:15;;;;;;;5.23;3.93;;;;;;;1.88;100.00;99660.91;5073051;28;20253;-77
2021/12/07 03:37:42;;;;;;;10.23;5.90;;;;;;;1.82;100.00;99653.94;5073286;28;20175;-77
2021/12/07 03:40:09;;;;;;;6.50;5.70;;;;;;;1.76;100.00;99645.88;5073204;28;20186;-77
2021/12/07 03:42:35;;;;;;;7.73;6.07;;;;;;;1.85;100.00;99651.50;5072484;28;20476;-77
2021/12/07 03:45:00;;;;;;;7.00;6.20;;;;;;;1.83;100.00;99658.25;5072955;28;20920;-77
2021/12/07 03:47:26;;;;;;;5.70;4.97;;;;;;;1.81;100.00;99661.22;5073151;28;20178;-77
2021/12/07 03:49:51;;;;;;;6.37;5.77;;;;;;;1.88;100.00;99656.34;5073284;28;20174;-77
2021/12/07 03:52:16;;;;;;;6.37;4.97;;;;;;;1.77;100.00;99663.66;5071564;28;20670;-77
2021/12/07 03:54:42;;;;;;;6.87;6.27;;;;;;;1.78;100.00;99659.88;5072682;28;20179;-77
2021/12/07 03:57:07;;;;;;;7.23;5.93;;;;;;;1.77;100.00;99660.16;5072291;28;20175;-75
2021/12/07 03:59:33;;;;;;;5.80;4.80;;;;;;;1.75;100.00;99660.44;5072856;28;20179;-75
2021/12/07 04:01:58;;;;;;;7.23;5.97;;;;;;;1.84;100.00;99655.28;5072722;28;20209;-75
2021/12/07 04:04:24;;;;;;;9.30;5.70;;;;;;;1.76;100.00;99659.34;5073164;28;20174;-75
2021/12/07 04:06:49;;;;;;;6.07;4.73;;;;;;;1.72;100.00;99655.56;5071068;28;20182;-77
2021/12/07 04:09:15;;;;;;;7.53;6.07;;;;;;;1.77;100.00;99662.84;5072659;28;20183;-77
2021/12/07 04:11:41;;;;;;;9.50;5.93;;;;;;;1.82;100.00;99662.00;5072715;28;20587;-77
2021/12/07 04:14:07;;;;;;;6.60;5.10;;;;;;;1.85;100.00;99664.97;5072764;28;20236;-77
2021/12/07 04:16:32;;;;;;;6.20;5.70;;;;;;;1.82;100.00;99665.50;5072549;28;20622;-77
2021/12/07 04:18:58;;;;;;;6.73;5.93;;;;;;;1.90;100.00;99658.78;5072829;28;20175;-77
2021/12/07 04:21:23;;;;;;;3.90;3.43;;;;;;;1.89;100.00;99668.75;5072628;28;20214;-76
2021/12/07 04:23:49;;;;;;;7.70;6.37;;;;;;;1.89;100.00;99670.63;5069964;28;20179;-77
2021/12/07 04:26:14;;;;;;;4.70;4.30;;;;;;;1.85;100.00;99666.84;5071514;28;20182;-77
2021/12/07 04:28:41;;;;;;;3.77;3.43;;;;;;;1.87;100.00;99675.44;5072497;28;20250;-76
2021/12/07 04:31:07;;;;;;;5.33;4.83;;;;;;;1.82;100.00;99672.78;5071070;28;20183;-77
2021/12/07 04:33:33;;;;;;;6.37;5.50;;;;;;;1.69;100.00;99666.88;5072410;28;20420;-77
2021/12/07 04:36:00;;;;;;;6.40;4.93;;;;;;;1.64;100.00;99668.78;5072172;28;20182;-77
2021/12/07 04:38:25;;;;;;;5.10;4.53;;;;;;;1.68;100.00;99673.34;5072247;28;20170;-77
2021/12/07 04:40:51;;;;;;;5.33;4.23;;;;;;;1.61;100.00;99667.44;5072210;28;20201;-77
2021/12/07 04:43:16;;;;;;;6.57;5.17;;;;;;;1.56;100.00;99675.50;5072293;28;20186;-77
2021/12/07 04:57:37;;;;;;;7.30;5.20;;;;;;;1.64;100.00;99674.16;5072007;28;20584;-78
2021/12/07 04:58:58;;;;;;;8.13;7.10;;;;;;;1.63;100.00;99684.13;5072014;28;20173;-77
2021/12/07 05:01:24;;;;;;;9.60;7.50;;;;;;;1.53;100.00;99683.31;5071668;28;20198;-77
2021/12/07 05:03:52;;;;;;;12.73;8.27;;;;;;;1.46;100.00;99680.91;5071769;28;20167;-77
2021/12/07 05:06:20;;;;;;;6.97;6.37;;;;;;;1.56;100.00;99677.41;5071587;28;20162;-77
2021/12/07 05:08:53;;;;;;;6.83;6.23;;;;;;;1.45;100.00;99674.72;5071463;28;20269;-76
2021/12/07 05:14:31;;;;;;;8.83;7.93;;;;;;;1.50;100.00;99676.59;5071982;28;20198;-75
2021/12/07 05:16:53;;;;;;;10.90;7.57;;;;;;;1.50;100.00;99676.59;5063052;28;20193;-75
2021/12/07 05:24:48;;;;;;;6.23;5.63;;;;;;;1.53;100.00;99692.22;5071627;28;20399;-76
2021/12/07 05:37:57;;;;;;;6.03;5.43;;;;;;;1.54;100.00;99693.81;5071092;28;20178;-77
2021/12/07 05:40:35;;;;;;;7.73;5.53;;;;;;;1.55;100.00;99702.69;5070985;28;20224;-77
2021/12/07 05:43:02;;;;;;;5.93;5.43;;;;;;;1.57;100.00;99697.84;5071197;28;20162;-77
2021/12/07 05:45:35;;;;;;;6.83;4.60;;;;;;;1.63;100.00;99704.84;5070825;28;20573;-77
2021/12/07 05:48:03;;;;;;;7.07;5.57;;;;;;;1.58;100.00;99702.97;5070940;28;20175;-77
2021/12/07 05:50:31;;;;;;;8.23;6.73;;;;;;;1.72;100.00;99704.03;5070782;28;20228;-77
2021/12/07 05:52:58;;;;;;;6.77;5.13;;;;;;;1.63;100.00;99710.25;5070635;28;20261;-77
2021/12/07 05:55:23;;;;;;;7.30;5.67;;;;;;;1.58;100.00;99707.53;5070679;28;20223;-77
2021/12/07 05:57:49;;;;;;;6.43;5.77;;;;;;;1.55;100.00;99714.28;5071018;28;20186;-77
2021/12/07 06:00:24;;;;;;;6.17;5.57;;;;;;;1.53;100.00;99721.81;5070898;28;20599;-77
2021/12/07 06:02:54;;;;;;;6.50;5.87;;;;;;;1.62;100.00;99727.47;5070891;28;20285;-77
2021/12/07 06:05:20;;;;;;;6.50;5.90;;;;;;;1.73;100.00;99734.44;5070940;28;20211;-77
2021/12/07 06:07:46;;;;;;;6.53;5.83;;;;;;;1.69;100.00;99728.81;5069574;28;20178;-77
2021/12/07 06:10:11;;;;;;;4.67;3.87;;;;;;;1.81;100.00;99742.00;5070592;28;20244;-75
2021/12/07 06:12:36;;;;;;;8.50;6.07;;;;;;;1.81;100.00;99743.88;5070497;28;20182;-77
2021/12/07 06:15:03;;;;;;;8.07;5.77;;;;;;;1.79;100.00;99741.47;5070230;28;20556;-77
2021/12/07 06:17:29;;;;;;;9.50;6.30;;;;;;;1.72;100.00;99749.78;5070451;28;20178;-77
2021/12/07 06:19:55;;;;;;;4.87;4.37;;;;;;;1.72;100.00;99752.50;5070019;28;20178;-77
2021/12/07 06:22:20;;;;;;;5.97;5.37;;;;;;;1.76;100.00;99748.19;5070514;28;20287;-77
2021/12/07 06:24:45;;;;;;;5.17;4.70;;;;;;;1.75;100.00;99757.34;5070160;28;20175;-77
2021/12/07 06:27:11;;;;;;;7.03;5.03;;;;;;;1.71;100.00;99756.25;5069033;28;20178;-77
2021/12/07 06:29:36;;;;;;;6.57;5.17;;;;;;;1.64;100.00;99752.25;5070737;28;20188;-77
2021/12/07 06:32:01;;;;;;;5.60;4.80;;;;;;;1.75;100.00;99754.66;5070258;28;20174;-77
2021/12/07 06:34:27;;;;;;;5.20;4.57;;;;;;;1.71;100.00;99753.56;5070306;28;20273;-77
2021/12/07 06:36:52;;;;;;;7.60;4.73;;;;;;;1.65;100.00;99756.53;5070120;28;20182;-77
2021/12/07 06:39:18;;;;;;;7.83;6.10;;;;;;;1.76;100.00;99761.66;5070341;28;20175;-77
2021/12/07 06:41:45;;;;;;;6.10;5.23;;;;;;;1.83;100.00;99774.03;5070132;28;20804;-75
2021/12/07 06:44:10;;;;;;;4.00;3.63;;;;;;;1.79;100.00;99771.88;5070125;28;20634;-77
2021/12/07 06:46:36;;;;;;;5.40;4.63;;;;;;;1.76;100.00;99768.94;5070300;28;20193;-77
2021/12/07 06:49:02;;;;;;;5.20;4.70;;;;;;;1.78;100.00;99770.28;5070613;28;20219;-77
2021/12/07 06:51:28;;;;;;;5.70;4.57;;;;;;;1.85;100.00;99779.97;5070274;28;20214;-77
2021/12/07 06:53:54;;;;;;;5.80;4.80;;;;;;;1.86;100.00;99785.06;5069780;28;20265;-77
2021/12/07 06:56:19;;;;;;;5.33;4.70;;;;;;;1.71;100.00;99783.19;5068658;28;20290;-76
2021/12/07 06:58:45;;;;;;;5.03;4.50;;;;;;;1.82;100.00;99794.78;5070088;28;20179;-77
2021/12/07 07:01:11;;;;;;;3.70;3.40;;;;;;;1.78;100.00;99797.19;5070029;28;20214;-77
2021/12/07 07:03:37;;;;;;;5.13;4.63;;;;;;;1.74;100.00;99795.31;5070090;28;20179;-77
2021/12/07 07:06:03;;;;;;;6.30;4.83;;;;;;;1.78;100.00;99804.47;5069817;28;20178;-76
2021/12/07 07:08:29;;;;;;;4.57;4.10;;;;;;;1.74;100.00;99814.97;5069868;28;20174;-77
2021/12/07 07:10:55;;;;;;;5.70;4.47;;;;;;;1.76;100.00;99810.13;5070044;28;20174;-77
2021/12/07 07:13:20;;;;;;;6.23;5.17;;;;;;;1.71;100.00;99820.06;5070192;28;20182;-75
2021/12/07 07:15:46;;;;;;;5.20;4.43;;;;;;;1.83;100.00;99826.00;5070012;28;20185;-75
2021/12/07 07:18:11;;;;;;;5.77;5.07;;;;;;;1.88;100.00;99833.28;5069952;28;20561;-75
2021/12/07 07:20:37;;;;;;;5.80;5.20;;;;;;;1.92;100.00;99826.28;5069737;28;20228;-75
2021/12/07 07:23:03;;;;;;;4.20;3.87;;;;;;;1.90;100.00;99837.34;5068541;28;20562;-75
2021/12/07 07:25:29;;;;;;;5.50;4.80;;;;;;;1.83;100.00;99834.09;5069450;28;20533;-77
2021/12/07 07:27:54;;;;;;;5.30;4.67;;;;;;;1.88;100.00;99841.34;5069809;28;20171;-77
2021/12/07 07:30:20;;;;;;;6.77;6.00;;;;;;;1.89;100.00;99835.72;5069806;28;20784;-77
2021/12/07 07:32:46;;;;;;;4.93;4.47;;;;;;;1.89;100.00;99837.63;5071219;28;20266;-77
2021/12/07 07:35:13;;;;;;;6.83;6.13;;;;;;;1.91;100.00;99848.91;5073324;28;20236;-74
2021/12/07 07:37:39;;;;;;;5.43;4.63;;;;;;;1.98;100.00;99850.25;5073511;28;20210;-75
2021/12/07 07:40:09;;;;;;;8.70;7.80;;;;;;;1.98;100.00;99852.13;5072539;28;20910;-76
2021/12/07 07:42:35;;;;;;;6.47;5.87;;;;;;;2.08;100.00;99857.53;5070029;28;20281;-74
2021/12/07 07:45:00;;;;;;;6.63;5.37;;;;;;;2.12;100.00;99855.91;5070584;28;20713;-75
2021/12/07 07:47:26;;;;;;;5.83;4.20;;;;;;;2.09;100.00;99859.16;5073063;28;20185;-77
2021/12/07 07:49:51;;;;;;;6.17;5.00;;;;;;;1.98;100.00;99860.22;5073676;28;20173;-74
2021/12/07 07:52:16;;;;;;;4.93;3.50;;;;;;;1.92;100.00;99858.63;5072939;28;20550;-75
2021/12/07 07:54:42;;;;;;;4.83;4.20;;;;;;;1.88;100.00;99861.03;5072996;28;20170;-78
2021/12/07 07:57:07;;;;;;;3.77;3.47;;;;;;;1.80;100.00;99861.56;5072987;28;20227;-77
2021/12/07 07:59:36;;;;;;;1.57;1.33;;;;;;;1.71;100.00;99852.38;5073005;28;20220;-77
2021/12/07 08:02:02;;;;;;;5.20;2.90;;;;;;;1.63;100.00;99859.13;5073010;28;20661;-77
2021/12/07 08:04:28;;;;;;;5.67;4.73;;;;;;;1.61;100.00;99855.88;5073010;28;20446;-76
2021/12/07 08:06:53;;;;;;;1.30;0.93;;;;;;;1.59;100.00;99860.75;5072818;28;20413;-77
2021/12/07 08:09:18;;;;;;;4.17;3.73;;;;;;;1.60;100.00;99854.28;5072812;28;20556;-76
2021/12/07 08:11:44;;;;;;;2.50;2.30;;;;;;;1.59;100.00;99859.91;5072971;28;20678;-76
2021/12/07 08:14:09;;;;;;;3.20;2.90;;;;;;;1.59;100.00;99860.75;5072741;28;20616;-76
2021/12/07 08:16:34;;;;;;;3.83;3.13;;;;;;;1.59;100.00;99871.50;5072759;28;20179;-77
2021/12/07 08:19:01;;;;;;;4.37;3.93;;;;;;;1.61;100.00;99865.84;5073296;28;20170;-77
2021/12/07 08:21:27;;;;;;;1.80;1.67;;;;;;;1.64;100.00;99871.50;5072511;28;20206;-77
2021/12/07 08:23:53;;;;;;;3.70;3.10;;;;;;;1.64;100.00;99876.09;5072632;28;20171;-76
2021/12/07 08:26:21;;;;;;;0.60;0.60;;;;;;;1.64;100.00;99884.97;5072373;28;20431;-77
2021/12/07 08:28:46;;;;;;;3.27;2.87;;;;;;;1.67;100.00;99881.72;5072540;28;20183;-76
2021/12/07 08:31:12;;;;;;;4.17;2.93;;;;;;;1.69;100.00;99886.84;5072458;28;20185;-76
2021/12/07 08:33:37;;;;;;;3.50;3.20;;;;;;;1.71;100.00;99887.38;5072378;28;20178;-76
2021/12/07 08:36:03;;;;;;;3.80;3.23;;;;;;;1.70;100.00;99889.28;5072315;28;20665;-77
2021/12/07 08:38:30;;;;;;;2.87;2.43;;;;;;;1.69;100.00;99886.84;5072447;28;20548;-77
2021/12/07 08:40:57;;;;;;;2.73;2.53;;;;;;;1.67;100.00;99889.81;5072429;28;20467;-77
2021/12/07 08:43:25;;;;;;;5.23;3.73;;;;;;;1.66;100.00;99880.13;5072379;28;20196;-75
2021/12/07 08:45:52;;;;;;;1.23;1.17;;;;;;;1.64;100.00;99889.53;5072754;28;20420;-76
2021/12/07 08:48:18;;;;;;;1.97;1.83;;;;;;;1.64;100.00;99886.84;5072508;28;20227;-76
2021/12/07 08:50:44;;;;;;;1.97;1.83;;;;;;;1.63;100.00;99901.38;5070235;28;20681;-74
2021/12/07 08:53:12;;;;;;;1.47;1.37;;;;;;;1.63;100.00;99896.81;5070509;28;20606;-77
2021/12/07 09:01:13;;;;;;;5.70;3.70;;;;;;;1.77;100.00;99897.91;5072283;28;20489;-78
2021/12/07 09:03:38;;;;;;;2.87;2.57;;;;;;;1.83;100.00;99900.59;5072449;28;20197;-76
2021/12/07 09:06:04;;;;;;;3.33;2.70;;;;;;;1.83;100.00;99909.50;5072266;28;20203;-76
2021/12/07 09:08:29;;;;;;;1.80;1.70;;;;;;;1.85;100.00;99904.66;5072175;28;20214;-77
2021/12/07 09:10:55;;;;;;;1.20;1.17;;;;;;;1.87;100.00;99907.88;5073199;28;20193;-77
2021/12/07 09:13:23;;;;;;;2.10;2.00;;;;;;;1.92;100.00;99909.78;5080092;28;20175;-77
2021/12/07 09:15:49;;;;;;;0.93;0.93;;;;;;;1.97;100.00;99907.09;5081503;28;20166;-77
2021/12/07 09:18:14;;;;;;;2.03;1.93;;;;;;;2.02;100.00;99915.97;5072320;28;20178;-77
2021/12/07 09:20:40;;;;;;;3.10;2.80;;;;;;;2.05;100.00;99915.47;5072005;28;20823;-77
2021/12/07 09:23:05;;;;;;;2.23;1.80;;;;;;;2.12;100.00;99923.28;5071861;28;20256;-77
2021/12/07 09:25:31;;;;;;;2.30;2.10;;;;;;;2.15;100.00;99936.19;5071538;28;20202;-76
2021/12/07 09:27:57;;;;;;;3.10;1.50;;;;;;;2.18;100.00;99946.47;5071689;28;20185;-77
2021/12/07 09:30:23;;;;;;;1.00;0.93;;;;;;;2.18;100.00;99941.06;5071490;28;20184;-77
2021/12/07 09:32:49;;;;;;;8.63;2.20;;;;;;;2.20;100.00;99944.31;5071461;28;20189;-77
2021/12/07 09:35:16;;;;;;;4.30;4.00;;;;;;;2.23;100.00;99949.16;5071473;28;20183;-77
2021/12/07 09:37:41;;;;;;;3.77;3.13;;;;;;;2.26;100.00;99945.09;5071343;28;20170;-77
2021/12/07 09:40:12;;;;;;;1.07;0.93;;;;;;;2.28;100.00;99949.16;5071313;28;20660;-77
2021/12/07 09:42:39;;;;;;;0.83;0.83;;;;;;;2.28;100.00;99946.47;5071463;28;20194;-77
2021/12/07 09:45:09;;;;;;;0.73;0.70;;;;;;;2.27;100.00;99939.44;5071216;28;20542;-77
2021/12/07 09:47:35;;;;;;;1.40;1.30;;;;;;;2.32;100.00;99942.16;5071310;28;20167;-77
2021/12/07 09:50:01;;;;;;;2.20;2.00;;;;;;;2.39;100.00;99940.00;5069915;28;20415;-76
2021/12/07 09:52:26;;;;;;;1.47;1.47;;;;;;;2.41;100.00;99934.34;5070715;28;20579;-77
2021/12/07 09:54:53;;;;;;;0.70;0.70;;;;;;;2.33;100.00;99934.88;5070462;28;20206;-77
2021/12/07 09:57:18;;;;;;;1.17;1.17;;;;;;;2.32;100.00;99939.47;5070973;28;20170;-77
2021/12/07 09:59:44;;;;;;;1.93;1.57;;;;;;;2.33;100.00;99932.19;5070974;28;20180;-77
2021/12/07 10:02:09;;;;;;;0.70;0.70;;;;;;;2.34;100.00;99942.69;5070915;28;20225;-77
2021/12/07 10:04:35;;;;;;;1.20;0.97;;;;;;;2.35;100.00;99940.81;5070698;28;20171;-77
2021/12/07 10:07:00;;;;;;;2.17;1.97;;;;;;;2.33;100.00;99938.38;5070853;28;20174;-77
2021/12/07 10:09:26;;;;;;;1.10;1.10;;;;;;;2.32;100.00;99936.78;5070832;28;20181;-80
2021/12/07 10:11:53;;;;;;;3.20;2.27;;;;;;;2.47;100.00;99937.84;5070848;28;20231;-77
2021/12/07 10:14:19;;;;;;;0.77;0.77;;;;;;;2.49;100.00;99933.00;5069587;28;20183;-77
2021/12/07 10:16:48;;;;;;;0.93;0.93;;;;;;;2.53;100.00;99942.16;5070674;28;20421;-77
2021/12/07 10:19:26;;;;;;;1.87;1.77;;;;;;;2.59;100.00;99946.44;5070700;28;20185;-77
2021/12/07 10:22:00;;;;;;;1.73;1.63;;;;;;;2.51;100.00;99942.44;5070646;28;20556;-76
2021/12/07 10:24:31;;;;;;;1.30;0.60;;;;;;;2.49;100.00;99939.19;5070719;28;20231;-76
2021/12/07 10:26:56;;;;;;;1.27;1.17;;;;;;;2.51;100.00;99936.22;5070657;28;20409;-81
2021/12/07 10:29:25;;;;;;;1.37;1.27;;;;;;;2.45;100.00;99943.50;5070779;28;20170;-77
2021/12/07 10:32:01;;;;;;;1.70;1.60;;;;;;;2.48;100.00;99940.28;5070871;28;20162;-77
2021/12/07 10:34:33;;;;;;;4.60;4.20;;;;;;;2.49;100.00;99938.38;5069379;28;20166;-77
2021/12/07 10:37:06;;;;;;;4.50;4.10;;;;;;;2.58;100.00;99936.75;5070686;28;20166;-77
2021/12/07 10:39:38;;;;;;;3.90;3.60;;;;;;;2.66;100.00;99942.41;5070538;28;20202;-77
2021/12/07 10:42:10;;;;;;;0.27;0.23;;;;;;;2.65;100.00;99954.28;5070543;28;20233;-77
2021/12/07 10:44:39;;;;;;;0.53;0.53;;;;;;;2.55;100.00;99937.28;5070474;28;20206;-77
2021/12/07 10:47:09;;;;;;;1.90;1.80;;;;;;;2.61;100.00;99928.13;5070419;28;20174;-76
2021/12/07 10:49:42;;;;;;;3.43;3.10;;;;;;;2.73;100.00;99928.63;5070491;28;20661;-77
2021/12/07 10:52:13;;;;;;;4.50;3.90;;;;;;;2.80;100.00;99921.09;5068903;28;20428;-77
2021/12/07 10:54:49;;;;;;;1.33;1.23;;;;;;;2.83;100.00;99938.59;5070368;28;20560;-76
2021/12/07 10:57:19;;;;;;;4.10;3.67;;;;;;;2.80;100.00;99939.97;5070856;28;20166;-77
2021/12/07 10:59:54;;;;;;;2.10;2.00;;;;;;;2.87;100.00;99947.75;5069009;28;20182;-76
2021/12/07 11:02:22;;;;;;;1.77;1.67;;;;;;;2.82;100.00;99937.00;5070261;28;20198;-77
2021/12/07 11:04:49;;;;;;;1.93;1.80;;;;;;;2.78;100.00;99939.44;5070494;28;20228;-77
2021/12/07 11:07:16;;;;;;;1.27;1.17;;;;;;;2.71;100.00;99936.19;5072686;28;20425;-77
2021/12/07 11:09:57;;;;;;;1.70;1.60;;;;;;;2.63;100.00;99932.19;5072585;28;20620;-77
2021/12/07 11:12:25;;;;;;;2.07;1.87;;;;;;;2.54;100.00;99914.91;5074132;28;20265;-77
2021/12/07 11:14:56;;;;;;;3.37;3.07;;;;;;;2.59;100.00;99917.59;5073820;28;20175;-78
2021/12/07 11:17:23;;;;;;;2.60;2.17;;;;;;;2.61;100.00;99915.47;5074011;28;20308;-78
2021/12/07 11:19:49;;;;;;;2.90;2.70;;;;;;;2.71;100.00;99925.41;5073915;28;20198;-77
2021/12/07 11:22:17;;;;;;;3.60;3.23;;;;;;;2.78;100.00;99920.56;5073794;28;20665;-76
2021/12/07 11:24:44;;;;;;;2.23;2.03;;;;;;;2.71;100.00;99924.59;5073603;28;20182;-76
2021/12/07 11:29:59;;;;;;;3.60;3.23;;;;;;;2.66;100.00;99920.84;5073203;28;20209;-76
2021/12/07 11:32:26;;;;;;;5.23;4.03;;;;;;;2.73;100.00;99928.63;5069976;28;20190;-76
2021/12/07 11:34:51;;;;;;;2.53;2.37;;;;;;;2.76;100.00;99943.50;5069234;28;20175;-76
2021/12/07 11:37:17;;;;;;;3.10;2.87;;;;;;;2.79;100.00;99937.53;5072937;28;20182;-76
2021/12/07 11:39:56;;;;;;;3.90;3.47;;;;;;;2.80;100.00;99934.56;5072867;28;20538;-77
2021/12/07 11:42:37;;;;;;;3.70;3.07;;;;;;;2.85;100.00;99950.75;5073281;28;20205;-76
2021/12/07 11:45:11;;;;;;;0.97;0.90;;;;;;;2.84;100.00;99954.53;5073314;28;20590;-76
2021/12/07 11:47:43;;;;;;;3.07;2.70;;;;;;;2.93;100.00;99952.91;5073789;28;20349;-77
2021/12/07 11:50:23;;;;;;;2.87;2.67;;;;;;;2.93;100.00;99958.28;5073296;28;20175;-77
2021/12/07 11:52:53;;;;;;;2.53;2.33;;;;;;;3.02;100.00;99971.22;5073032;28;20182;-76
2021/12/07 11:55:19;;;;;;;3.33;2.70;;;;;;;3.05;100.00;99958.00;5071857;28;20175;-76
2021/12/07 11:57:46;;;;;;;0.83;0.83;;;;;;;3.08;100.00;99948.53;5073229;28;20618;-76
2021/12/07 12:00:17;;;;;;;3.33;2.80;;;;;;;3.04;100.00;99933.97;5073255;28;20710;-75
2021/12/07 12:02:43;;;;;;;1.90;1.80;;;;;;;3.05;100.00;99949.91;5073079;28;20574;-75
2021/12/07 12:05:08;;;;;;;4.07;3.67;;;;;;;3.02;100.00;99949.63;5073032;28;20179;-76
2021/12/07 12:07:34;;;;;;;3.13;2.83;;;;;;;3.02;100.00;99950.44;5073069;28;20573;-76
2021/12/07 12:09:59;;;;;;;1.67;1.57;;;;;;;3.03;100.00;99960.13;5072970;28;20186;-76
2021/12/07 12:12:49;;;;;;;3.00;2.80;;;;;;;2.98;100.00;99958.28;5073020;28;20528;-75
2021/12/07 12:15:36;;;;;;;2.57;2.37;;;;;;;2.98;100.00;99957.47;5072809;28;20224;-76
2021/12/07 12:18:13;;;;;;;1.23;0.97;;;;;;;3.02;100.00;99968.50;5072824;28;20570;-76
2021/12/07 12:20:59;;;;;;;0.90;0.90;;;;;;;2.93;100.00;99970.97;5072865;28;20240;-75
2021/12/07 12:23:43;;;;;;;1.20;1.20;;;;;;;2.90;100.00;99961.53;5072687;28;20175;-76
2021/12/07 12:26:10;;;;;;;3.30;3.00;;;;;;;2.92;100.00;99961.28;5072507;28;20178;-77
2021/12/07 12:28:47;;;;;;;2.60;2.17;;;;;;;2.92;100.00;99955.88;5072569;28;20262;-77
2021/12/07 12:31:13;;;;;;;1.37;1.27;;;;;;;2.88;100.00;99958.28;5072266;28;20181;-77
2021/12/07 12:33:50;;;;;;;1.67;1.57;;;;;;;2.88;100.00;99941.28;5072218;28;20166;-77
2021/12/07 12:36:18;;;;;;;3.97;3.57;;;;;;;2.95;100.00;99948.03;5072147;28;20478;-77
2021/12/07 12:39:06;;;;;;;1.40;1.07;;;;;;;2.99;100.00;99962.59;5071159;28;20179;-77
2021/12/07 12:41:31;;;;;;;1.90;1.67;;;;;;;2.93;100.00;99962.88;5072326;28;20624;-77
2021/12/07 12:44:05;;;;;;;2.97;2.73;;;;;;;2.94;100.00;99961.78;5071058;28;20521;-77
2021/12/07 12:46:33;;;;;;;4.17;3.87;;;;;;;3.01;100.00;99950.72;5072125;28;20526;-77
2021/12/07 12:49:02;;;;;;;3.30;2.83;;;;;;;2.94;100.00;99940.22;5072227;28;20646;-77
2021/12/07 12:51:50;;;;;;;3.13;2.93;;;;;;;2.94;100.00;99946.41;5072137;28;20178;-76
2021/12/07 12:54:18;;;;;;;1.80;1.67;;;;;;;2.90;100.00;99944.56;5071861;28;20216;-77
2021/12/07 12:56:44;;;;;;;4.83;2.40;;;;;;;2.92;100.00;99945.06;5072171;28;20417;-77
2021/12/07 12:59:11;;;;;;;1.73;1.63;;;;;;;2.91;100.00;99941.56;5072072;28;20413;-77
2021/12/07 13:01:45;;;;;;;3.27;3.03;;;;;;;2.89;100.00;99948.28;5071864;28;20187;-77
2021/12/07 13:04:22;;;;;;;2.83;2.57;;;;;;;2.89;100.00;99951.84;5070720;28;20586;-77
2021/12/07 13:07:00;;;;;;;4.07;3.70;;;;;;;2.95;100.00;99952.63;5067954;28;20186;-77
2021/12/07 13:09:30;;;;;;;8.50;5.00;;;;;;;2.94;100.00;99954.50;5068097;28;20198;-76
2021/12/07 13:12:08;;;;;;;6.00;4.37;;;;;;;2.98;100.00;99946.66;5062979;28;20193;-76
2021/12/07 13:14:51;;;;;;;5.03;3.43;;;;;;;2.94;100.00;99951.00;5070778;28;20175;-76
2021/12/07 13:17:20;;;;;;;2.23;1.77;;;;;;;2.97;100.00;99956.66;5068241;28;20179;-77
2021/12/07 13:20:16;;;;;;;5.50;2.83;;;;;;;2.91;100.00;99949.66;5070232;28;20218;-77